createdAt,value
2022-08-22T00:00:13.710Z,17.10
2022-08-22T00:02:46.055Z,19.90
2022-08-22T00:02:57.377Z,18.00
2022-08-22T00:03:08.632Z,19.70
2022-08-22T00:04:26.458Z,17.10
2022-08-22T00:08:34.843Z,17.10
2022-08-22T00:12:45.464Z,17.10
2022-08-22T00:16:58.061Z,17.10
2022-08-22T00:21:11.660Z,17.00
2022-08-22T00:25:33.122Z,16.90
2022-08-22T00:29:43.513Z,16.80
2022-08-22T00:33:49.354Z,16.80
2022-08-22T00:38:02.534Z,16.70
2022-08-22T00:42:42.465Z,16.50
2022-08-22T00:47:05.329Z,16.40
2022-08-22T00:51:32.798Z,16.30
2022-08-22T00:55:59.108Z,16.30
2022-08-22T01:00:17.827Z,16.40
2022-08-22T01:04:41.282Z,16.40
2022-08-22T01:08:58.335Z,16.30
2022-08-22T01:13:15.166Z,16.20
2022-08-22T01:17:50.183Z,16.00
2022-08-22T01:22:25.089Z,15.90
2022-08-22T01:27:13.835Z,15.80
2022-08-22T01:31:40.946Z,15.70
2022-08-22T01:36:02.202Z,15.70
2022-08-22T01:40:53.540Z,15.70
2022-08-22T01:45:33.709Z,15.70
2022-08-22T01:49:44.066Z,15.70
2022-08-22T01:53:58.990Z,15.60
2022-08-22T01:58:05.414Z,15.60
2022-08-22T02:02:27.310Z,15.50
2022-08-22T02:06:41.760Z,15.60
2022-08-22T02:10:55.124Z,15.50
2022-08-22T02:15:15.928Z,15.50
2022-08-22T02:19:34.096Z,15.50
2022-08-22T02:23:47.978Z,15.50
2022-08-22T02:27:58.706Z,15.50
2022-08-22T02:32:20.445Z,15.40
2022-08-22T02:36:29.818Z,15.40
2022-08-22T02:40:38.077Z,15.40
2022-08-22T02:44:49.376Z,15.40
2022-08-22T02:49:03.962Z,15.30
2022-08-22T02:53:13.642Z,15.20
2022-08-22T02:57:24.349Z,15.10
2022-08-22T03:01:41.231Z,15.00
2022-08-22T03:05:52.507Z,15.00
2022-08-22T03:10:04.062Z,14.90
2022-08-22T03:14:12.784Z,14.90
2022-08-22T03:18:23.566Z,14.90
2022-08-22T03:22:34.412Z,14.80
2022-08-22T03:26:45.824Z,14.80
2022-08-22T03:30:58.827Z,14.80
2022-08-22T03:35:06.420Z,14.70
2022-08-22T03:39:17.453Z,14.60
2022-08-22T03:43:38.446Z,14.60
2022-08-22T03:48:10.025Z,14.60
2022-08-22T03:52:33.550Z,14.60
2022-08-22T03:57:18.404Z,14.50
2022-08-22T04:01:43.698Z,14.50
2022-08-22T04:06:12.854Z,14.50
2022-08-22T04:10:44.918Z,14.40
2022-08-22T04:15:15.332Z,14.40
2022-08-22T04:19:41.869Z,14.40
2022-08-22T04:23:59.135Z,14.40
2022-08-22T04:28:09.695Z,14.40
2022-08-22T04:32:21.942Z,14.40
2022-08-22T04:36:30.256Z,14.30
2022-08-22T04:40:40.072Z,14.30
2022-08-22T04:44:51.500Z,14.30
2022-08-22T04:48:58.121Z,14.30
2022-08-22T04:53:13.789Z,14.40
2022-08-22T04:57:26.038Z,14.40
2022-08-22T05:01:42.836Z,14.40
2022-08-22T05:05:48.560Z,14.50
2022-08-22T05:09:56.361Z,14.50
2022-08-22T05:14:04.383Z,14.50
2022-08-22T05:18:13.381Z,14.60
2022-08-22T05:22:21.684Z,14.60
2022-08-22T05:26:25.488Z,14.80
2022-08-22T05:30:31.316Z,15.00
2022-08-22T05:34:39.071Z,15.20
2022-08-22T05:38:47.122Z,15.40
2022-08-22T05:47:00.896Z,20.30
2022-08-22T05:51:15.505Z,22.20
2022-08-22T05:55:25.480Z,22.00
2022-08-22T05:59:33.642Z,21.20
2022-08-22T06:03:41.983Z,20.80
2022-08-22T06:07:49.967Z,20.90
2022-08-22T06:11:58.466Z,20.40
2022-08-22T06:16:11.682Z,20.10
2022-08-22T06:20:19.161Z,20.20
2022-08-22T06:24:27.149Z,20.60
2022-08-22T06:28:54.436Z,21.20
2022-08-22T06:33:03.506Z,20.70
2022-08-22T06:37:12.270Z,19.90
2022-08-22T06:41:16.515Z,19.70
2022-08-22T06:45:22.988Z,19.50
2022-08-22T06:49:27.800Z,19.50
2022-08-22T06:53:36.617Z,19.60
2022-08-22T06:57:49.646Z,19.60
2022-08-22T07:01:56.907Z,19.40
2022-08-22T07:06:00.390Z,19.30
2022-08-22T07:10:03.394Z,19.30
2022-08-22T07:14:12.024Z,19.30
2022-08-22T07:18:19.356Z,19.50
2022-08-22T07:22:24.777Z,20.00
2022-08-22T07:26:33.594Z,20.40
2022-08-22T07:30:46.329Z,20.40
2022-08-22T07:35:01.898Z,20.30
2022-08-22T07:39:23.764Z,20.50
2022-08-22T07:43:32.236Z,20.60
2022-08-22T07:47:59.201Z,20.90
2022-08-22T07:52:06.588Z,21.60
2022-08-22T07:56:15.489Z,22.80
2022-08-22T08:00:21.113Z,22.80
2022-08-22T08:04:30.210Z,23.10
2022-08-22T08:08:40.948Z,23.00
2022-08-22T08:12:58.034Z,23.00
2022-08-22T08:17:09.714Z,23.30
2022-08-22T08:21:31.587Z,23.50
2022-08-22T08:25:53.610Z,23.60
2022-08-22T08:30:00.315Z,23.90
2022-08-22T08:34:07.912Z,24.50
2022-08-22T08:38:16.649Z,25.00
2022-08-22T08:42:56.088Z,25.10
2022-08-22T08:47:25.432Z,24.90
2022-08-22T08:52:12.489Z,25.40
2022-08-22T08:56:26.765Z,25.20
2022-08-22T09:00:48.975Z,25.60
2022-08-22T09:05:19.688Z,25.90
2022-08-22T09:09:35.853Z,26.50
2022-08-22T09:13:51.914Z,26.70
2022-08-22T09:18:30.923Z,26.50
2022-08-22T09:23:10.096Z,26.60
2022-08-22T09:27:19.365Z,26.80
2022-08-22T09:31:48.182Z,26.90
2022-08-22T09:36:05.209Z,27.00
2022-08-22T09:40:18.828Z,27.50
2022-08-22T09:44:34.287Z,27.80
2022-08-22T09:48:59.022Z,28.20
2022-08-22T09:53:10.500Z,28.20
2022-08-22T09:57:22.859Z,28.00
2022-08-22T10:01:32.921Z,27.70
2022-08-22T10:05:46.307Z,27.90
2022-08-22T10:09:58.065Z,28.10
2022-08-22T10:14:09.107Z,28.00
2022-08-22T10:18:22.831Z,28.20
2022-08-22T10:22:44.555Z,28.60
2022-08-22T10:26:51.915Z,28.60
2022-08-22T10:31:12.889Z,28.70
2022-08-22T10:35:27.492Z,28.70
2022-08-22T10:39:43.977Z,28.90
2022-08-22T10:44:00.514Z,29.00
2022-08-22T10:48:23.363Z,28.80
2022-08-22T10:52:32.773Z,28.70
2022-08-22T10:56:43.865Z,28.80
2022-08-22T11:00:51.200Z,28.80
2022-08-22T11:05:16.094Z,29.10
2022-08-22T11:09:32.150Z,29.30
2022-08-22T11:13:49.899Z,29.00
2022-08-22T11:18:14.697Z,28.60
2022-08-22T11:22:31.062Z,28.50
2022-08-22T11:26:47.266Z,28.70
2022-08-22T11:31:07.204Z,28.70
2022-08-22T11:35:21.247Z,29.10
2022-08-22T11:39:30.550Z,29.00
2022-08-22T11:43:44.897Z,29.30
2022-08-22T11:48:00.189Z,29.40
2022-08-22T11:52:24.245Z,29.50
2022-08-22T11:56:35.126Z,29.40
2022-08-22T12:00:50.004Z,29.20
2022-08-22T12:04:59.686Z,29.00
2022-08-22T12:09:17.925Z,29.00
2022-08-22T12:13:35.062Z,28.90
2022-08-22T12:18:15.345Z,29.10
2022-08-22T12:22:56.479Z,29.20
2022-08-22T12:27:28.722Z,29.10
2022-08-22T12:31:40.937Z,28.90
2022-08-22T12:35:55.264Z,28.70
2022-08-22T12:40:20.182Z,28.50
2022-08-22T12:44:37.317Z,28.60
2022-08-22T12:48:54.214Z,28.80
2022-08-22T12:53:18.164Z,29.00
2022-08-22T12:57:36.417Z,29.10
2022-08-22T13:01:44.208Z,29.40
2022-08-22T13:05:56.965Z,29.70
2022-08-22T13:10:33.141Z,29.60
2022-08-22T13:14:38.047Z,29.70
2022-08-22T13:18:53.562Z,29.60
2022-08-22T13:22:59.389Z,29.50
2022-08-22T13:27:10.148Z,29.60
2022-08-22T13:31:25.512Z,29.50
2022-08-22T13:35:34.168Z,29.00
2022-08-22T13:39:41.867Z,29.00
2022-08-22T13:44:02.124Z,29.00
2022-08-22T13:48:11.372Z,29.20
2022-08-22T13:52:29.295Z,29.40
2022-08-22T13:56:43.530Z,29.70
2022-08-22T14:01:14.601Z,29.90
2022-08-22T14:05:25.963Z,29.70
2022-08-22T14:09:39.004Z,29.70
2022-08-22T14:13:46.099Z,29.80
2022-08-22T14:17:50.830Z,29.80
2022-08-22T14:21:59.582Z,29.70
2022-08-22T14:26:02.910Z,29.60
2022-08-22T14:30:13.803Z,29.40
2022-08-22T14:34:17.419Z,29.40
2022-08-22T14:38:30.457Z,29.50
2022-08-22T14:42:44.383Z,29.40
2022-08-22T14:46:52.320Z,29.30
2022-08-22T14:50:57.982Z,29.30
2022-08-22T14:55:16.713Z,29.30
2022-08-22T14:59:33.142Z,29.00
2022-08-22T15:03:39.074Z,29.00
2022-08-22T15:07:43.633Z,28.80
2022-08-22T15:11:53.409Z,28.70
2022-08-22T15:16:03.510Z,28.60
2022-08-22T15:20:22.875Z,28.40
2022-08-22T15:24:31.916Z,28.30
2022-08-22T15:28:52.782Z,28.40
2022-08-22T15:33:10.315Z,28.40
2022-08-22T15:37:32.588Z,28.30
2022-08-22T15:41:44.844Z,28.20
2022-08-22T15:45:52.837Z,28.00
2022-08-22T15:49:59.678Z,27.80
2022-08-22T15:54:16.432Z,27.60
2022-08-22T15:58:27.494Z,27.40
2022-08-22T16:02:35.752Z,27.30
2022-08-22T16:06:44.989Z,27.30
2022-08-22T16:10:54.933Z,27.30
2022-08-22T16:14:58.841Z,27.20
2022-08-22T16:19:24.886Z,27.20
2022-08-22T16:23:28.029Z,27.00
2022-08-22T16:27:31.311Z,26.90
2022-08-22T16:31:38.710Z,26.80
2022-08-22T16:36:25.020Z,26.70
2022-08-22T16:40:29.373Z,26.70
2022-08-22T16:44:43.305Z,26.60
2022-08-22T16:48:46.763Z,26.60
2022-08-22T16:53:00.854Z,26.50
2022-08-22T16:57:14.697Z,26.50
2022-08-22T17:01:23.845Z,26.40
2022-08-22T17:05:41.623Z,26.30
2022-08-22T17:10:12.490Z,26.20
2022-08-22T17:14:33.292Z,26.20
2022-08-22T17:19:09.121Z,26.20
2022-08-22T17:23:19.895Z,26.10
2022-08-22T17:27:29.186Z,26.00
2022-08-22T17:31:44.810Z,26.00
2022-08-22T17:35:59.607Z,25.90
2022-08-22T17:40:17.649Z,25.90
2022-08-22T17:44:29.949Z,25.80
2022-08-22T17:48:47.960Z,25.80
2022-08-22T17:52:55.073Z,25.70
2022-08-22T17:57:06.169Z,25.60
2022-08-22T18:01:13.578Z,25.50
2022-08-22T18:05:21.261Z,25.40
2022-08-22T18:09:32.221Z,25.30
2022-08-22T18:13:43.324Z,25.30
2022-08-22T18:17:53.207Z,25.20
2022-08-22T18:22:02.056Z,25.10
2022-08-22T18:26:18.232Z,25.10
2022-08-22T18:30:23.621Z,25.00
2022-08-22T18:34:32.794Z,25.00
2022-08-22T18:38:42.095Z,24.90
2022-08-22T18:42:51.677Z,24.80
2022-08-22T18:46:56.817Z,24.70
2022-08-22T18:51:24.499Z,24.60
2022-08-22T18:55:46.058Z,24.50
2022-08-22T19:00:04.723Z,24.50
2022-08-22T19:04:36.246Z,24.40
2022-08-22T19:09:02.879Z,24.30
2022-08-22T19:13:25.368Z,24.10
2022-08-22T19:17:43.620Z,23.80
2022-08-22T19:22:23.003Z,23.70
2022-08-22T19:26:30.676Z,23.40
2022-08-22T19:30:43.897Z,23.30
2022-08-22T19:34:47.150Z,23.30
2022-08-22T19:38:57.677Z,23.20
2022-08-22T19:43:02.189Z,23.30
2022-08-22T19:47:13.269Z,23.10
2022-08-22T19:51:26.739Z,22.90
2022-08-22T19:55:44.944Z,22.80
2022-08-22T20:00:00.017Z,22.70
2022-08-22T20:04:09.613Z,22.70
2022-08-22T20:08:25.569Z,22.50
2022-08-22T20:12:37.775Z,22.40
2022-08-22T20:17:00.109Z,22.30
2022-08-22T20:21:04.467Z,22.20
2022-08-22T20:25:41.389Z,22.20
2022-08-22T20:29:39.691Z,22.10
2022-08-22T20:33:46.172Z,22.10
2022-08-22T20:38:10.897Z,22.10
2022-08-22T20:42:16.815Z,22.10
2022-08-22T20:46:33.301Z,22.00
2022-08-22T20:50:36.362Z,21.90
2022-08-22T20:54:42.124Z,21.90
2022-08-22T20:58:48.856Z,21.80
2022-08-22T21:02:57.321Z,21.80
2022-08-22T21:07:02.518Z,21.80
2022-08-22T21:11:25.644Z,21.80
2022-08-22T21:15:34.661Z,21.80
2022-08-22T21:19:38.012Z,21.80
2022-08-22T21:23:46.329Z,21.80
2022-08-22T21:27:53.493Z,21.80
2022-08-22T21:32:04.430Z,21.80
2022-08-22T21:36:11.781Z,21.80
2022-08-22T21:40:18.458Z,21.80
2022-08-22T21:44:33.449Z,21.80
2022-08-22T21:48:43.662Z,21.80
2022-08-22T21:53:02.126Z,21.70
2022-08-22T21:57:17.969Z,21.70
2022-08-22T22:01:33.645Z,21.60
2022-08-22T22:05:37.104Z,21.60
2022-08-22T22:09:39.888Z,21.50
2022-08-22T22:13:49.955Z,21.50
2022-08-22T22:17:55.107Z,21.50
2022-08-22T22:21:58.037Z,21.50
2022-08-22T22:26:03.262Z,21.50
2022-08-22T22:30:07.730Z,21.50
2022-08-22T22:34:12.405Z,21.50
2022-08-22T22:38:18.418Z,21.40
2022-08-22T22:42:23.423Z,21.50
2022-08-22T22:46:26.782Z,21.50
2022-08-22T22:50:31.321Z,21.50
2022-08-22T22:54:34.182Z,21.70
2022-08-22T22:58:38.172Z,21.80
2022-08-22T23:02:41.519Z,21.90
2022-08-22T23:06:45.612Z,21.90
2022-08-22T23:10:48.400Z,21.90
2022-08-22T23:14:51.490Z,22.00
2022-08-22T23:18:56.119Z,22.00
2022-08-22T23:23:00.500Z,22.00
2022-08-22T23:27:05.754Z,22.00
2022-08-22T23:31:14.350Z,22.00
2022-08-22T23:35:17.208Z,22.00
2022-08-22T23:39:22.539Z,22.00
2022-08-22T23:43:25.709Z,22.10
2022-08-22T23:47:28.581Z,22.00
2022-08-22T23:51:31.488Z,22.00
2022-08-22T23:55:35.580Z,22.00
2022-08-22T23:59:40.706Z,22.00
